Strava

2014 Porlock Toll Road Hill Climb Course

Porlock, United Kingdom
  • Distance
    6.7 km
  • Elevation
    350 m
  • Grade
    5%

Overall Leaderboard

Speed Power
VAM
Time
Tejvan P. 1 Tejvan P. 28.6km/h 364 Powermeter 1,490.2 14:06
2 Ed L. 27.0km/h 386 Powermeter 1,407.1 14:56
3 Dan Evans 26.7km/h 408 Powermeter 1,388.5 15:08
4 Ben D. 26.2km/h 409 1,361.5 15:26
5 Charlie M. 25.9km/h 341 Powermeter 1,348.4 15:35
6 Dicky B. 25.7km/h 373 1,338.3 15:42
7 Carlo Fino 25.6km/h 371 Powermeter 1,334.1 15:45
8 Blake P. 25.3km/h 369 1,317.4 15:57
9 Oscar (Boris) H. 25.2km/h 372 Powermeter 1,311.9 16:01
10 Andrew Feather 25.2km/h 413 Powermeter 1,310.5 16:02

Women's Leaderboard

Speed Power
VAM
Time
Maryka S. 1 Maryka Sennema 22.8km/h 255 Powermeter 1,189.4 17:40
2 Sophie S. 20.5km/h 256 1,064.8 19:44
3 Joanne J. 20.3km/h 283 Powermeter 1,057.7 19:52
4 josephine gilbert 20.1km/h 220 Powermeter 1,047.1 20:04
5 Lizzy Banks 19.9km/h 296 Powermeter 1,034.2 20:19
6 Emma C. 19.6km/h 284 Powermeter 1,022.5 20:33
7 Jessica Evans 19.4km/h 222 1,008.6 20:50
8 Catherine H. 19.3km/h 216 1,007.0 20:52
9 Julie M. 19.2km/h 241 998.2 21:03
9 Alice L. 19.2km/h 281 Powermeter 998.2 21:03